createdAt,value
2022-12-05T00:00:56.065Z,8.00
2022-12-05T00:03:23.158Z,7.80
2022-12-05T00:05:50.243Z,7.70
2022-12-05T00:08:17.808Z,7.60
2022-12-05T00:10:44.981Z,7.93
2022-12-05T00:13:12.130Z,7.53
2022-12-05T00:15:41.917Z,7.77
2022-12-05T00:18:09.033Z,7.60
2022-12-05T00:20:36.074Z,7.20
2022-12-05T00:23:03.158Z,7.50
2022-12-05T00:25:30.255Z,7.63
2022-12-05T00:30:32.959Z,7.80
2022-12-05T00:33:00.059Z,8.17
2022-12-05T00:35:27.135Z,8.10
2022-12-05T00:37:54.158Z,7.60
2022-12-05T00:40:21.224Z,7.70
2022-12-05T00:42:52.266Z,7.27
2022-12-05T00:45:19.854Z,7.93
2022-12-05T00:47:46.910Z,8.30
2022-12-05T00:50:14.016Z,7.50
2022-12-05T00:52:41.069Z,7.67
2022-12-05T00:55:08.271Z,7.43
2022-12-05T00:57:35.337Z,7.73
2022-12-05T01:00:02.867Z,8.60
2022-12-05T01:02:30.812Z,7.87
2022-12-05T01:04:57.880Z,7.47
2022-12-05T01:07:24.965Z,7.97
2022-12-05T01:09:52.008Z,7.63
2022-12-05T01:12:19.075Z,8.33
2022-12-05T01:14:46.138Z,8.50
2022-12-05T01:17:13.196Z,7.53
2022-12-05T01:19:40.270Z,8.23
2022-12-05T01:22:07.375Z,7.87
2022-12-05T01:24:34.444Z,8.07
2022-12-05T01:27:01.540Z,8.27
2022-12-05T01:29:28.591Z,8.17
2022-12-05T01:31:55.807Z,8.20
2022-12-05T01:34:23.003Z,8.63
2022-12-05T01:36:50.076Z,8.27
2022-12-05T01:39:17.644Z,7.80
2022-12-05T01:41:46.106Z,8.53
2022-12-05T01:44:13.140Z,8.00
2022-12-05T01:46:44.270Z,8.10
2022-12-05T01:49:15.884Z,8.97
2022-12-05T01:51:47.553Z,8.30
2022-12-05T01:54:15.709Z,8.27
2022-12-05T01:56:44.137Z,8.27
2022-12-05T01:59:12.213Z,8.17
2022-12-05T02:01:39.596Z,7.77
2022-12-05T02:04:06.956Z,7.77
2022-12-05T02:06:34.096Z,7.97
2022-12-05T02:09:01.289Z,7.77
2022-12-05T02:11:29.780Z,8.20
2022-12-05T02:13:56.811Z,8.47
2022-12-05T02:16:39.168Z,7.67
2022-12-05T02:19:06.204Z,7.83
2022-12-05T02:21:52.229Z,8.13
2022-12-05T02:24:42.250Z,7.93
2022-12-05T02:27:21.161Z,8.20
2022-12-05T02:30:02.910Z,8.27
2022-12-05T02:32:48.441Z,7.60
2022-12-05T02:35:24.683Z,7.17
2022-12-05T02:37:55.057Z,7.60
2022-12-05T02:40:27.283Z,7.43
2022-12-05T02:43:00.229Z,7.50
2022-12-05T02:45:28.551Z,7.07
2022-12-05T02:47:56.094Z,7.77
2022-12-05T02:50:25.806Z,7.07
2022-12-05T02:52:54.642Z,7.20
2022-12-05T02:55:22.663Z,7.80
2022-12-05T02:57:53.432Z,7.43
2022-12-05T03:00:21.803Z,7.37
2022-12-05T03:02:49.884Z,7.53
2022-12-05T03:05:17.012Z,7.27
2022-12-05T03:07:46.352Z,7.67
2022-12-05T03:10:14.815Z,7.53
2022-12-05T03:12:44.676Z,6.90
2022-12-05T03:15:15.631Z,7.33
2022-12-05T03:17:45.371Z,7.17
2022-12-05T03:20:16.150Z,7.13
2022-12-05T03:22:49.288Z,7.07
2022-12-05T03:25:17.138Z,7.90
2022-12-05T03:27:53.073Z,7.30
2022-12-05T03:30:21.815Z,7.23
2022-12-05T03:33:01.076Z,7.23
2022-12-05T03:35:30.957Z,6.97
2022-12-05T03:37:58.004Z,7.17
2022-12-05T03:40:33.077Z,7.10
2022-12-05T03:43:19.204Z,7.30
2022-12-05T03:45:53.818Z,6.67
2022-12-05T03:48:27.107Z,7.10
2022-12-05T03:50:54.906Z,6.70
2022-12-05T03:53:25.905Z,7.20
2022-12-05T03:56:19.120Z,6.87
2022-12-05T03:58:57.880Z,6.20
2022-12-05T04:01:28.120Z,7.10
2022-12-05T04:04:00.614Z,6.57
2022-12-05T04:06:31.154Z,6.47
2022-12-05T04:09:21.495Z,6.47
2022-12-05T04:11:51.858Z,6.60
2022-12-05T04:14:22.638Z,6.53
2022-12-05T04:17:04.654Z,6.10
2022-12-05T04:19:59.904Z,6.40
2022-12-05T04:22:27.814Z,6.90
2022-12-05T04:25:14.975Z,5.77
2022-12-05T04:28:00.672Z,5.90
2022-12-05T04:30:31.099Z,6.10
2022-12-05T04:33:01.235Z,5.83
2022-12-05T04:35:42.556Z,5.97
2022-12-05T04:38:12.512Z,6.17
2022-12-05T04:40:48.788Z,5.80
2022-12-05T04:43:16.898Z,5.90
2022-12-05T04:45:44.502Z,5.73
2022-12-05T04:48:13.151Z,6.03
2022-12-05T04:50:40.822Z,5.83
2022-12-05T04:53:10.157Z,6.30
2022-12-05T04:55:37.690Z,5.50
2022-12-05T04:58:09.258Z,6.23
2022-12-05T05:00:40.089Z,6.30
2022-12-05T05:03:17.952Z,6.20
2022-12-05T05:05:48.007Z,5.97
2022-12-05T05:08:19.784Z,5.60
2022-12-05T05:11:05.607Z,5.97
2022-12-05T05:13:32.703Z,5.63
2022-12-05T05:15:59.774Z,6.03
2022-12-05T05:18:26.875Z,6.00
2022-12-05T05:20:53.908Z,5.87
2022-12-05T05:23:21.007Z,5.53
2022-12-05T05:25:52.514Z,5.37
2022-12-05T05:28:19.644Z,5.70
2022-12-05T05:30:46.764Z,5.67
2022-12-05T05:33:13.892Z,5.47
2022-12-05T05:35:40.966Z,4.97
2022-12-05T05:38:08.044Z,5.50
2022-12-05T05:40:37.929Z,5.83
2022-12-05T05:43:04.990Z,5.07
2022-12-05T05:45:32.078Z,5.23
2022-12-05T05:47:59.256Z,5.40
2022-12-05T05:50:26.351Z,5.67
2022-12-05T05:52:53.451Z,5.50
2022-12-05T05:55:20.502Z,5.97
2022-12-05T05:57:47.606Z,5.47
2022-12-05T06:00:15.065Z,5.30
2022-12-05T06:02:42.596Z,5.43
2022-12-05T06:05:09.807Z,5.37
2022-12-05T06:07:36.901Z,5.47
2022-12-05T06:10:04.315Z,5.37
2022-12-05T06:12:31.433Z,5.83
2022-12-05T06:14:58.476Z,5.77
2022-12-05T06:17:25.508Z,5.40
2022-12-05T06:19:52.582Z,5.67
2022-12-05T06:22:19.681Z,5.63
2022-12-05T06:24:46.744Z,5.50
2022-12-05T06:27:13.862Z,6.30
2022-12-05T06:29:40.936Z,5.77
2022-12-05T06:32:08.026Z,5.80
2022-12-05T06:34:35.647Z,5.67
2022-12-05T06:37:02.823Z,5.90
2022-12-05T06:39:29.892Z,5.80
2022-12-05T06:41:56.993Z,5.93
2022-12-05T06:44:26.887Z,6.07
2022-12-05T06:46:54.795Z,5.97
2022-12-05T06:49:27.855Z,5.57
2022-12-05T06:51:57.126Z,5.47
2022-12-05T06:54:24.175Z,5.40
2022-12-05T06:56:51.244Z,6.00
2022-12-05T06:59:18.323Z,5.93
2022-12-05T07:01:47.027Z,5.20
2022-12-05T07:04:16.333Z,5.73
2022-12-05T07:06:49.979Z,5.83
2022-12-05T07:09:18.681Z,5.80
2022-12-05T07:11:50.021Z,5.87
2022-12-05T07:14:39.032Z,6.50
2022-12-05T07:17:05.188Z,6.37
2022-12-05T07:19:32.371Z,5.93
2022-12-05T07:21:59.415Z,6.20
2022-12-05T07:24:26.690Z,5.90
2022-12-05T07:26:53.782Z,5.97
2022-12-05T07:29:20.840Z,5.67
2022-12-05T07:31:47.911Z,6.50
2022-12-05T07:34:15.047Z,5.80
2022-12-05T07:36:42.103Z,6.50
2022-12-05T07:39:10.047Z,6.33
2022-12-05T07:41:37.113Z,5.83
2022-12-05T07:44:04.262Z,6.20
2022-12-05T07:46:31.385Z,6.33
2022-12-05T07:48:58.467Z,5.80
2022-12-05T07:51:25.669Z,6.10
2022-12-05T07:53:52.926Z,5.73
2022-12-05T07:56:20.349Z,6.30
2022-12-05T07:58:48.872Z,6.20
2022-12-05T08:01:20.264Z,6.03
2022-12-05T08:03:48.106Z,5.70
2022-12-05T08:06:16.697Z,5.50
2022-12-05T08:08:44.073Z,6.43
2022-12-05T08:11:12.228Z,6.13
2022-12-05T08:13:39.432Z,6.03
2022-12-05T08:16:08.116Z,5.53
2022-12-05T08:18:35.180Z,6.37
2022-12-05T08:21:02.966Z,5.90
2022-12-05T08:23:31.402Z,6.00
2022-12-05T08:26:02.125Z,6.47
2022-12-05T08:28:29.649Z,6.33
2022-12-05T08:30:56.772Z,6.90
2022-12-05T08:33:23.859Z,6.37
2022-12-05T08:35:50.917Z,6.33
2022-12-05T08:38:17.975Z,14.63
2022-12-05T08:40:47.482Z,14.47
2022-12-05T08:43:14.681Z,15.90
2022-12-05T08:45:41.804Z,14.60
2022-12-05T08:48:08.902Z,15.67
2022-12-05T08:50:39.461Z,16.30
2022-12-05T08:53:06.524Z,17.17
2022-12-05T08:55:34.998Z,16.77
2022-12-05T08:58:02.066Z,16.80
2022-12-05T09:00:29.173Z,18.13
2022-12-05T09:02:56.304Z,17.73
2022-12-05T09:05:28.472Z,18.03
2022-12-05T09:07:56.616Z,17.60
2022-12-05T09:10:23.763Z,18.93
2022-12-05T09:12:51.288Z,16.77
2022-12-05T09:15:18.420Z,16.70
2022-12-05T09:17:45.689Z,16.07
2022-12-05T09:20:13.860Z,15.50
2022-12-05T09:22:41.601Z,16.27
2022-12-05T09:25:09.092Z,16.63
2022-12-05T09:27:36.177Z,15.23
2022-12-05T09:30:03.823Z,16.70
2022-12-05T09:32:32.040Z,15.40
2022-12-05T09:34:59.464Z,15.67
2022-12-05T09:37:41.896Z,14.90
2022-12-05T09:40:16.133Z,15.50
2022-12-05T09:43:03.472Z,15.70
2022-12-05T09:45:34.685Z,15.37
2022-12-05T09:48:05.678Z,14.20
2022-12-05T09:50:35.754Z,11.67
2022-12-05T09:53:07.478Z,11.83
2022-12-05T09:55:37.513Z,12.17
2022-12-05T09:58:05.995Z,11.10
2022-12-05T10:00:33.217Z,11.57
2022-12-05T10:03:14.486Z,10.87
2022-12-05T10:05:45.073Z,10.73
2022-12-05T10:08:21.219Z,10.53
2022-12-05T10:11:02.819Z,10.80
2022-12-05T10:13:33.056Z,10.33
2022-12-05T10:16:01.997Z,11.80
2022-12-05T10:18:40.343Z,11.27
2022-12-05T10:21:07.365Z,9.73
2022-12-05T10:23:58.095Z,11.07
2022-12-05T10:26:28.784Z,12.10
2022-12-05T10:28:58.609Z,10.23
2022-12-05T10:31:28.237Z,10.60
2022-12-05T10:33:59.093Z,10.70
2022-12-05T10:36:26.548Z,10.90
2022-12-05T10:38:53.831Z,10.07
2022-12-05T10:41:20.926Z,9.67
2022-12-05T10:43:49.108Z,9.50
2022-12-05T10:46:17.590Z,8.00
2022-12-05T10:48:45.083Z,7.97
2022-12-05T10:51:14.774Z,9.00
2022-12-05T10:53:42.998Z,6.47
2022-12-05T10:56:30.599Z,5.97
2022-12-05T10:59:00.022Z,6.17
2022-12-05T11:01:28.205Z,5.80
2022-12-05T11:03:59.600Z,6.33
2022-12-05T11:06:30.636Z,5.60
2022-12-05T11:09:06.609Z,5.60
2022-12-05T11:11:34.287Z,5.53
2022-12-05T11:14:02.899Z,6.70
2022-12-05T11:16:33.181Z,6.63
2022-12-05T11:19:24.172Z,6.17
2022-12-05T11:21:51.684Z,5.63
2022-12-05T11:24:22.806Z,6.23
2022-12-05T11:26:50.632Z,6.33
2022-12-05T11:29:29.879Z,5.93
2022-12-05T11:31:57.297Z,5.90
2022-12-05T11:34:27.094Z,5.70
2022-12-05T11:36:56.803Z,5.80
2022-12-05T11:39:25.236Z,6.40
2022-12-05T11:42:24.733Z,6.20
2022-12-05T11:45:12.027Z,6.77
2022-12-05T11:48:17.703Z,6.30
2022-12-05T11:51:13.846Z,6.53
2022-12-05T11:53:48.743Z,6.23
2022-12-05T11:56:29.472Z,6.40
2022-12-05T11:59:02.331Z,5.97
2022-12-05T12:01:29.386Z,6.03
2022-12-05T12:04:14.751Z,5.70
2022-12-05T12:06:47.779Z,6.17
2022-12-05T12:09:23.694Z,6.17
2022-12-05T12:11:50.722Z,6.47
2022-12-05T12:14:17.826Z,6.20
2022-12-05T12:16:53.987Z,6.43
2022-12-05T12:19:27.166Z,6.97
2022-12-05T12:22:00.012Z,6.50
2022-12-05T12:24:29.797Z,6.27
2022-12-05T12:27:16.840Z,6.17
2022-12-05T12:29:55.835Z,6.37
2022-12-05T12:32:45.886Z,5.90
2022-12-05T12:35:25.121Z,6.67
2022-12-05T12:37:58.911Z,6.40
2022-12-05T12:40:39.939Z,6.60
2022-12-05T12:43:06.975Z,6.80
2022-12-05T12:45:51.405Z,6.80
2022-12-05T12:48:18.471Z,6.47
2022-12-05T12:50:46.856Z,6.10
2022-12-05T12:53:17.137Z,6.57
2022-12-05T12:55:46.990Z,5.77
2022-12-05T12:58:23.078Z,6.27
2022-12-05T13:00:53.067Z,6.73
2022-12-05T13:03:38.765Z,5.97
2022-12-05T13:06:09.655Z,5.17
2022-12-05T13:08:41.748Z,5.60
2022-12-05T13:11:10.243Z,5.73
2022-12-05T13:13:39.237Z,6.27
2022-12-05T13:16:07.763Z,5.70
2022-12-05T13:18:35.398Z,5.77
2022-12-05T13:21:04.264Z,6.20
2022-12-05T13:23:35.550Z,6.10
2022-12-05T13:26:08.507Z,6.33
2022-12-05T13:28:41.981Z,5.60
2022-12-05T13:31:10.120Z,5.50
2022-12-05T13:33:43.198Z,5.63
2022-12-05T13:36:29.026Z,5.83
2022-12-05T13:39:19.402Z,5.63
2022-12-05T13:42:06.778Z,5.93
2022-12-05T13:44:37.524Z,5.50
2022-12-05T13:47:07.368Z,5.43
2022-12-05T13:49:43.244Z,5.40
2022-12-05T13:52:30.646Z,5.57
2022-12-05T13:55:17.947Z,6.07
2022-12-05T13:57:49.021Z,5.40
2022-12-05T14:00:16.069Z,6.10
2022-12-05T14:02:47.132Z,5.80
2022-12-05T14:05:14.355Z,5.73
2022-12-05T14:07:45.527Z,6.37
2022-12-05T14:10:16.453Z,5.97
2022-12-05T14:12:57.044Z,5.10
2022-12-05T14:15:30.252Z,5.03
2022-12-05T14:18:00.502Z,4.43
2022-12-05T14:20:33.582Z,4.73
2022-12-05T14:23:07.081Z,5.00
2022-12-05T14:25:43.529Z,4.20
2022-12-05T14:28:19.065Z,4.57
2022-12-05T14:30:51.558Z,4.67
2022-12-05T14:33:22.407Z,4.90
2022-12-05T14:35:51.465Z,5.00
2022-12-05T14:38:32.682Z,4.30
2022-12-05T14:41:12.583Z,5.27
2022-12-05T14:43:39.907Z,4.67
2022-12-05T14:46:09.062Z,4.70
2022-12-05T14:48:47.971Z,4.97
2022-12-05T14:51:33.752Z,6.37
2022-12-05T14:54:05.445Z,5.30
2022-12-05T14:56:33.249Z,5.90
2022-12-05T14:59:04.417Z,5.40
2022-12-05T15:01:40.596Z,5.47
2022-12-05T15:04:26.348Z,5.90
2022-12-05T15:06:56.504Z,5.57
2022-12-05T15:09:42.191Z,5.63
2022-12-05T15:12:41.848Z,5.47
2022-12-05T15:15:17.483Z,5.53
2022-12-05T15:17:50.062Z,5.70
2022-12-05T15:20:19.931Z,5.90
2022-12-05T15:22:47.076Z,6.00
2022-12-05T15:25:14.931Z,5.77
2022-12-05T15:27:41.996Z,5.57
2022-12-05T15:30:16.984Z,6.40
2022-12-05T15:32:44.459Z,6.43
2022-12-05T15:35:14.054Z,6.60
2022-12-05T15:38:05.071Z,6.43
2022-12-05T15:40:39.027Z,6.73
2022-12-05T15:43:28.291Z,7.57
2022-12-05T15:46:08.225Z,8.10
2022-12-05T15:48:35.539Z,7.53
2022-12-05T15:51:03.286Z,7.47
2022-12-05T15:53:40.903Z,8.03
2022-12-05T15:56:12.029Z,7.40
2022-12-05T15:58:54.893Z,6.73
2022-12-05T16:01:23.641Z,6.70
2022-12-05T16:04:06.184Z,6.87
2022-12-05T16:06:39.712Z,6.70
2022-12-05T16:09:11.548Z,6.93
2022-12-05T16:11:39.196Z,6.90
2022-12-05T16:14:07.554Z,7.07
2022-12-05T16:16:36.563Z,6.83
2022-12-05T16:19:05.578Z,7.13
2022-12-05T16:21:38.595Z,6.73
2022-12-05T16:24:17.744Z,6.87
2022-12-05T16:26:56.568Z,7.83
2022-12-05T16:29:28.101Z,7.37
2022-12-05T16:31:59.192Z,7.10
2022-12-05T16:34:27.182Z,7.70
2022-12-05T16:36:55.609Z,7.67
2022-12-05T16:39:23.780Z,8.37
2022-12-05T16:41:51.219Z,8.00
2022-12-05T16:44:27.425Z,7.77
2022-12-05T16:46:55.324Z,7.63
2022-12-05T16:49:32.354Z,8.57
2022-12-05T16:52:03.567Z,8.87
2022-12-05T16:54:30.705Z,9.37
2022-12-05T16:56:59.152Z,8.53
2022-12-05T16:59:31.319Z,8.70
2022-12-05T17:01:58.514Z,8.83
2022-12-05T17:04:25.661Z,8.90
2022-12-05T17:06:52.747Z,10.00
2022-12-05T17:09:19.845Z,9.90
2022-12-05T17:11:48.005Z,10.50
2022-12-05T17:14:15.803Z,9.40
2022-12-05T17:16:43.067Z,10.40
2022-12-05T17:19:10.924Z,9.90
2022-12-05T17:21:38.531Z,10.00
2022-12-05T17:24:06.132Z,8.83
2022-12-05T17:26:33.234Z,8.30
2022-12-05T17:29:00.313Z,7.70
2022-12-05T17:31:27.558Z,7.70
2022-12-05T17:33:54.819Z,7.63
2022-12-05T17:36:22.086Z,7.20
2022-12-05T17:38:49.615Z,7.67
2022-12-05T17:41:25.898Z,7.80
2022-12-05T17:43:53.293Z,8.23
2022-12-05T17:46:21.914Z,7.23
2022-12-05T17:48:49.501Z,6.80
2022-12-05T17:51:16.676Z,7.07
2022-12-05T17:53:47.690Z,6.57
2022-12-05T17:56:14.855Z,6.60
2022-12-05T17:58:42.400Z,6.57
2022-12-05T18:01:14.489Z,6.53
2022-12-05T18:03:41.651Z,6.10
2022-12-05T18:06:08.891Z,6.20
2022-12-05T18:08:39.551Z,6.17
2022-12-05T18:11:07.158Z,6.73
2022-12-05T18:13:34.450Z,6.70
2022-12-05T18:16:02.000Z,7.13
2022-12-05T18:18:29.468Z,6.70
2022-12-05T18:21:09.403Z,6.93
2022-12-05T18:23:36.957Z,6.97
2022-12-05T18:26:04.606Z,6.60
2022-12-05T18:28:31.685Z,6.20
2022-12-05T18:31:17.799Z,6.10
2022-12-05T18:33:45.419Z,7.17
2022-12-05T18:36:15.449Z,7.17
2022-12-05T18:38:43.323Z,7.40
2022-12-05T18:41:10.551Z,10.23
2022-12-05T18:43:37.606Z,12.00
2022-12-05T18:46:04.802Z,8.23
2022-12-05T18:48:46.973Z,7.27
2022-12-05T18:51:19.136Z,7.77
2022-12-05T18:53:51.599Z,9.60
2022-12-05T18:56:22.608Z,7.70
2022-12-05T18:59:04.733Z,8.47
2022-12-05T19:01:32.845Z,7.43
2022-12-05T19:04:01.723Z,6.83
2022-12-05T19:06:29.836Z,7.90
2022-12-05T19:08:57.893Z,7.70
2022-12-05T19:11:28.796Z,7.60
2022-12-05T19:13:59.528Z,7.97
2022-12-05T19:16:26.710Z,6.60
2022-12-05T19:18:55.652Z,6.80
2022-12-05T19:21:23.535Z,6.90
2022-12-05T19:23:50.608Z,7.47
2022-12-05T19:26:17.667Z,6.40
2022-12-05T19:28:44.772Z,6.27
2022-12-05T19:31:16.304Z,6.63
2022-12-05T19:33:44.638Z,6.13
2022-12-05T19:36:13.836Z,6.03
2022-12-05T19:38:42.495Z,5.90
2022-12-05T19:41:10.539Z,5.80
2022-12-05T19:43:38.105Z,5.73
2022-12-05T19:46:06.365Z,5.70
2022-12-05T19:48:33.905Z,5.60
2022-12-05T19:51:01.511Z,5.67
2022-12-05T19:53:30.108Z,5.87
2022-12-05T19:56:01.513Z,5.60
2022-12-05T19:58:29.017Z,5.80
2022-12-05T20:00:56.201Z,5.23
2022-12-05T20:03:23.293Z,5.47
2022-12-05T20:05:57.484Z,5.60
2022-12-05T20:08:24.574Z,4.77
2022-12-05T20:10:52.584Z,4.93
2022-12-05T20:13:46.073Z,4.70
2022-12-05T20:16:10.876Z,5.10
2022-12-05T20:18:39.788Z,4.70
2022-12-05T20:21:07.664Z,5.67
2022-12-05T20:23:34.971Z,5.33
2022-12-05T20:26:05.035Z,5.40
2022-12-05T20:28:32.410Z,5.37
2022-12-05T20:31:08.552Z,5.40
2022-12-05T20:33:36.140Z,5.70
2022-12-05T20:36:04.408Z,6.10
2022-12-05T20:38:31.780Z,5.30
2022-12-05T20:41:00.092Z,5.53
2022-12-05T20:43:27.560Z,5.60
2022-12-05T20:45:54.848Z,5.57
2022-12-05T20:48:25.837Z,5.83
2022-12-05T20:50:55.863Z,5.57
2022-12-05T20:53:23.087Z,5.40
2022-12-05T20:55:50.148Z,5.57
2022-12-05T20:58:17.305Z,5.57
2022-12-05T21:00:44.462Z,5.87
2022-12-05T21:03:16.971Z,5.40
2022-12-05T21:05:44.363Z,5.43
2022-12-05T21:08:11.426Z,5.63
2022-12-05T21:10:38.582Z,5.57
2022-12-05T21:13:05.635Z,5.57
2022-12-05T21:15:32.776Z,5.63
2022-12-05T21:17:59.903Z,5.47
2022-12-05T21:20:26.986Z,5.23
2022-12-05T21:22:54.027Z,5.53
2022-12-05T21:25:21.126Z,6.07
2022-12-05T21:27:48.186Z,5.73
2022-12-05T21:30:16.371Z,5.60
2022-12-05T21:32:44.239Z,5.60
2022-12-05T21:35:12.181Z,5.20
2022-12-05T21:37:39.721Z,5.13
2022-12-05T21:40:10.926Z,4.20
2022-12-05T21:42:37.996Z,4.23
2022-12-05T21:45:05.481Z,4.20
2022-12-05T21:47:32.610Z,4.10
2022-12-05T21:49:59.896Z,4.27
2022-12-05T21:52:27.156Z,4.00
2022-12-05T21:54:54.184Z,3.90
2022-12-05T21:57:21.253Z,4.00
2022-12-05T21:59:48.363Z,3.83
2022-12-05T22:02:15.511Z,3.70
2022-12-05T22:04:42.564Z,3.80
2022-12-05T22:07:09.702Z,3.80
2022-12-05T22:09:36.805Z,3.57
2022-12-05T22:12:04.095Z,3.40
2022-12-05T22:14:31.172Z,3.40
2022-12-05T22:16:58.206Z,3.10
2022-12-05T22:19:25.315Z,3.70
2022-12-05T22:24:28.532Z,3.57
2022-12-05T22:26:55.574Z,3.57
2022-12-05T22:29:22.681Z,3.70
2022-12-05T22:31:49.776Z,3.47
2022-12-05T22:34:16.909Z,3.73
2022-12-05T22:36:43.932Z,3.53
2022-12-05T22:39:12.818Z,3.37
2022-12-05T22:41:39.914Z,3.53
2022-12-05T22:44:06.960Z,3.43
2022-12-05T22:46:34.062Z,3.30
2022-12-05T22:49:03.584Z,3.57
2022-12-05T22:51:30.814Z,3.53
2022-12-05T22:53:58.012Z,3.87
2022-12-05T22:56:26.384Z,4.27
2022-12-05T22:58:55.058Z,4.30
2022-12-05T23:01:32.622Z,4.33
2022-12-05T23:04:01.138Z,4.53
2022-12-05T23:06:29.647Z,4.37
2022-12-05T23:08:56.732Z,4.20
2022-12-05T23:11:24.394Z,3.77
2022-12-05T23:13:51.538Z,3.80
2022-12-05T23:16:23.503Z,4.10
2022-12-05T23:18:51.159Z,3.50
2022-12-05T23:21:20.159Z,3.43
2022-12-05T23:23:48.483Z,3.50
2022-12-05T23:26:15.998Z,3.53
2022-12-05T23:28:43.068Z,3.67
2022-12-05T23:31:10.880Z,4.00
2022-12-05T23:33:38.598Z,3.30
2022-12-05T23:36:05.994Z,3.83
2022-12-05T23:38:34.498Z,3.73
2022-12-05T23:41:01.639Z,3.40
2022-12-05T23:43:29.870Z,3.20
2022-12-05T23:45:57.335Z,3.33
2022-12-05T23:48:24.556Z,3.30
2022-12-05T23:51:01.836Z,3.20
2022-12-05T23:53:29.382Z,3.10
2022-12-05T23:56:00.275Z,2.93
2022-12-05T23:58:27.414Z,3.43
